createdAt,value
2017-11-28T00:01:45.952Z,95321.13
2017-11-28T00:04:19.112Z,95324.88
2017-11-28T00:06:48.196Z,95331.17
2017-11-28T00:09:18.134Z,95328.36
2017-11-28T00:11:47.151Z,95329.52
2017-11-28T00:14:19.695Z,95313.91
2017-11-28T00:19:24.087Z,95306.22
2017-11-28T00:21:58.792Z,95298.29
2017-11-28T00:24:27.851Z,95302.36
2017-11-28T00:26:57.928Z,95301.92
2017-11-28T00:29:26.959Z,95295.75
2017-11-28T00:32:01.199Z,95296.52
2017-11-28T00:34:30.231Z,95289.31
2017-11-28T00:36:59.266Z,95284.77
2017-11-28T00:39:28.283Z,95281.81
2017-11-28T00:41:57.331Z,95276.70
2017-11-28T00:44:26.359Z,95275.69
2017-11-28T00:46:59.766Z,95270.05
2017-11-28T00:49:29.078Z,95266.92
2017-11-28T00:52:00.050Z,95262.95
2017-11-28T00:54:29.083Z,95264.88
2017-11-28T00:56:58.140Z,95264.73
2017-11-28T00:59:27.184Z,95265.05
2017-11-28T01:01:56.206Z,95263.80
2017-11-28T01:04:25.228Z,95254.24
2017-11-28T01:09:30.075Z,95255.53
2017-11-28T01:11:59.115Z,95253.16
2017-11-28T01:14:29.042Z,95258.24
2017-11-28T01:16:58.543Z,95245.73
2017-11-28T01:19:31.015Z,95241.26
2017-11-28T01:22:00.245Z,95239.99
2017-11-28T01:24:29.303Z,95237.42
2017-11-28T01:26:58.326Z,95230.56
2017-11-28T01:29:28.319Z,95226.52
2017-11-28T01:31:57.554Z,95216.03
2017-11-28T01:34:27.529Z,95211.73
2017-11-28T01:39:36.791Z,95192.91
2017-11-28T01:42:05.874Z,95188.66
2017-11-28T01:44:34.898Z,95183.44
2017-11-28T01:47:03.944Z,95174.12
2017-11-28T01:49:40.813Z,95175.22
2017-11-28T01:52:09.862Z,95173.55
2017-11-28T01:59:49.363Z,95170.48
2017-11-28T02:02:19.457Z,95154.95
2017-11-28T02:04:48.492Z,95160.86
2017-11-28T02:07:18.471Z,95150.55
2017-11-28T02:12:22.820Z,95147.91
2017-11-28T02:14:51.859Z,95139.46
2017-11-28T02:17:25.435Z,95134.10
2017-11-28T02:19:54.474Z,95120.96
2017-11-28T02:22:23.575Z,95113.80
2017-11-28T02:24:52.601Z,95110.86
2017-11-28T02:29:56.897Z,95111.11
2017-11-28T02:32:25.960Z,95111.53
2017-11-28T02:34:55.031Z,95111.52
2017-11-28T02:40:00.267Z,95115.41
2017-11-28T02:42:29.324Z,95112.27
2017-11-28T02:44:58.326Z,95110.94
2017-11-28T02:47:27.370Z,95113.27
2017-11-28T02:50:02.097Z,95109.00
2017-11-28T02:52:31.136Z,95100.80
2017-11-28T02:57:54.546Z,95098.06
2017-11-28T03:00:23.563Z,95086.86
2017-11-28T03:02:52.616Z,95079.23
2017-11-28T03:05:21.659Z,95071.89
2017-11-28T03:07:51.612Z,95075.33
2017-11-28T03:10:28.256Z,95069.03
2017-11-28T03:13:01.924Z,95066.12
2017-11-28T03:15:31.960Z,95065.91
2017-11-28T03:18:04.578Z,95058.27
2017-11-28T03:20:36.150Z,95061.05
2017-11-28T03:25:40.424Z,95056.61
2017-11-28T03:31:26.853Z,95054.89
2017-11-28T03:33:59.331Z,95054.57
2017-11-28T03:36:28.359Z,95036.12
2017-11-28T03:38:57.390Z,95034.23
2017-11-28T03:41:26.443Z,95027.64
2017-11-28T03:43:55.509Z,95021.02
2017-11-28T03:46:28.208Z,95014.39
2017-11-28T03:51:40.467Z,95013.95
2017-11-28T03:54:11.513Z,95010.21
2017-11-28T03:56:40.583Z,95013.73
2017-11-28T03:59:09.601Z,95012.92
2017-11-28T04:04:13.862Z,95000.83
2017-11-28T04:06:42.887Z,95000.16
2017-11-28T04:09:12.831Z,95006.82
2017-11-28T04:11:41.871Z,94996.69
2017-11-28T04:14:15.653Z,94982.41
2017-11-28T04:16:44.666Z,94986.20
2017-11-28T04:19:15.737Z,94988.08
2017-11-28T04:21:44.751Z,94987.31
2017-11-28T04:24:14.731Z,94981.76
2017-11-28T04:26:43.800Z,94978.55
2017-11-28T04:29:12.832Z,94985.67
2017-11-28T04:31:41.878Z,94984.19
2017-11-28T04:34:11.832Z,94976.78
2017-11-28T04:36:40.977Z,94981.75
2017-11-28T04:39:10.038Z,94983.72
2017-11-28T04:41:39.399Z,94988.02
2017-11-28T04:46:43.491Z,94987.16
2017-11-28T04:49:17.454Z,94988.45
2017-11-28T04:51:46.504Z,94982.27
2017-11-28T04:54:19.074Z,94982.12
2017-11-28T04:56:48.168Z,94971.88
2017-11-28T04:59:17.197Z,94974.28
2017-11-28T05:01:46.252Z,94963.22
2017-11-28T05:06:51.469Z,94974.76
2017-11-28T05:09:20.546Z,94967.90
2017-11-28T05:11:49.579Z,94973.77
2017-11-28T05:14:18.641Z,94974.48
2017-11-28T05:16:47.659Z,94970.90
2017-11-28T05:19:24.303Z,94976.63
2017-11-28T05:21:53.339Z,94969.56
2017-11-28T05:24:22.394Z,94971.52
2017-11-28T05:26:51.448Z,94976.78
2017-11-28T05:29:21.410Z,94979.98
2017-11-28T05:31:50.431Z,94976.43
2017-11-28T05:34:19.491Z,94978.52
2017-11-28T05:39:23.802Z,94975.88
2017-11-28T05:41:52.847Z,94979.64
2017-11-28T05:44:21.954Z,94970.20
2017-11-28T05:46:51.965Z,94972.28
2017-11-28T05:49:20.991Z,94968.20
2017-11-28T05:51:51.289Z,94964.25
2017-11-28T05:54:20.332Z,94971.13
2017-11-28T05:56:49.379Z,94957.19
2017-11-28T05:59:18.460Z,94951.16
2017-11-28T06:01:48.394Z,94957.42
2017-11-28T06:04:17.441Z,94963.36
2017-11-28T06:06:46.454Z,94967.47
2017-11-28T06:09:15.527Z,94969.27
2017-11-28T06:11:44.578Z,94957.12
2017-11-28T06:14:13.611Z,94952.34
2017-11-28T06:16:42.654Z,94967.35
2017-11-28T06:19:11.680Z,94959.72
2017-11-28T06:24:16.815Z,94952.93
2017-11-28T06:26:46.920Z,94958.78
2017-11-28T06:29:15.950Z,94940.88
2017-11-28T06:31:45.032Z,94951.19
2017-11-28T06:34:14.047Z,94951.07
2017-11-28T06:36:43.078Z,94956.77
2017-11-28T06:39:12.224Z,94956.20
2017-11-28T06:41:42.204Z,94962.66
2017-11-28T06:44:11.239Z,94958.14
2017-11-28T06:49:19.466Z,94961.32
2017-11-28T06:51:49.455Z,94957.42
2017-11-28T06:54:18.536Z,94957.72
2017-11-28T06:56:53.328Z,94953.97
2017-11-28T06:59:27.793Z,94950.22
2017-11-28T07:01:57.846Z,94954.30
2017-11-28T07:07:03.732Z,94945.73
2017-11-28T07:09:33.687Z,94950.43
2017-11-28T07:12:02.730Z,94953.60
2017-11-28T07:17:09.947Z,94950.74
2017-11-28T07:19:40.879Z,94939.41
2017-11-28T07:22:09.903Z,94932.95
2017-11-28T07:24:46.355Z,94942.63
2017-11-28T07:27:15.649Z,94925.53
2017-11-28T07:29:44.667Z,94929.56
2017-11-28T07:32:14.613Z,94931.72
2017-11-28T07:34:43.656Z,94926.13
2017-11-28T07:37:16.719Z,94931.09
2017-11-28T07:42:20.982Z,94928.86
2017-11-28T07:44:55.998Z,94928.17
2017-11-28T07:47:25.128Z,94927.33
2017-11-28T07:49:58.579Z,94932.11
2017-11-28T07:55:17.287Z,94931.51
2017-11-28T07:57:46.310Z,94919.61
2017-11-28T08:05:26.507Z,94915.19
2017-11-28T08:10:30.744Z,94918.73
2017-11-28T08:12:59.786Z,94913.77
2017-11-28T08:15:28.832Z,94912.86
2017-11-28T08:18:05.575Z,94918.44
2017-11-28T08:20:34.629Z,94918.38
2017-11-28T08:23:03.715Z,94909.58
2017-11-28T08:25:32.877Z,94907.98
2017-11-28T08:28:03.816Z,94910.09
2017-11-28T08:30:32.845Z,94916.57
2017-11-28T08:33:02.826Z,94906.31
2017-11-28T08:35:31.960Z,94897.73
2017-11-28T08:38:01.022Z,94904.88
2017-11-28T08:40:30.035Z,94904.84
2017-11-28T08:42:59.074Z,94904.75
2017-11-28T08:45:29.024Z,94904.11
2017-11-28T08:48:06.139Z,94898.91
2017-11-28T08:50:40.322Z,94903.63
2017-11-28T08:55:46.674Z,94901.34
2017-11-28T08:58:16.617Z,94912.38
2017-11-28T09:00:49.804Z,94911.17
2017-11-28T09:03:18.836Z,94900.45
2017-11-28T09:05:54.405Z,94903.86
2017-11-28T09:11:00.746Z,94896.20
2017-11-28T09:13:34.748Z,94898.47
2017-11-28T09:16:03.884Z,94905.80
2017-11-28T09:18:32.961Z,94903.30
2017-11-28T09:21:02.002Z,94902.30
2017-11-28T09:23:31.042Z,94908.16
2017-11-28T09:26:00.151Z,94905.98
2017-11-28T09:28:29.170Z,94899.98
2017-11-28T09:30:58.211Z,94900.05
2017-11-28T09:36:02.495Z,94901.19
2017-11-28T09:38:31.579Z,94897.85
2017-11-28T09:41:00.620Z,94900.26
2017-11-28T09:43:29.709Z,94892.45
2017-11-28T09:45:58.727Z,94890.95
2017-11-28T09:48:27.750Z,94883.62
2017-11-28T09:50:56.795Z,94877.89
2017-11-28T09:53:26.857Z,94877.97
2017-11-28T09:55:55.921Z,94880.98
2017-11-28T09:58:28.190Z,94881.70
2017-11-28T10:00:57.231Z,94881.06
2017-11-28T10:03:27.219Z,94887.08
2017-11-28T10:05:56.260Z,94880.03
2017-11-28T10:08:28.358Z,94879.86
2017-11-28T10:10:57.387Z,94875.03
2017-11-28T10:13:31.922Z,94867.99
2017-11-28T10:16:00.957Z,94860.02
2017-11-28T10:18:29.999Z,94861.98
2017-11-28T10:20:59.027Z,94860.83
2017-11-28T10:23:28.067Z,94856.63
2017-11-28T10:25:57.103Z,94858.30
2017-11-28T10:28:27.097Z,94852.75
2017-11-28T10:30:56.126Z,94851.88
2017-11-28T10:33:26.127Z,94848.39
2017-11-28T10:35:55.184Z,94852.84
2017-11-28T10:38:24.265Z,94842.23
2017-11-28T10:40:53.307Z,94838.77
2017-11-28T10:45:58.540Z,94839.41
2017-11-28T10:48:30.946Z,94832.36
2017-11-28T10:51:00.900Z,94833.37
2017-11-28T10:53:34.564Z,94833.02
2017-11-28T10:56:03.633Z,94830.12
2017-11-28T10:58:38.747Z,94839.39
2017-11-28T11:01:09.751Z,94828.28
2017-11-28T11:03:39.981Z,94833.13
2017-11-28T11:06:11.114Z,94819.19
2017-11-28T11:08:41.598Z,94821.30
2017-11-28T11:11:10.770Z,94820.17
2017-11-28T11:13:41.912Z,94830.67
2017-11-28T11:18:48.146Z,94834.80
2017-11-28T11:21:19.131Z,94829.45
2017-11-28T11:23:48.168Z,94825.91
2017-11-28T11:26:21.106Z,94814.97
2017-11-28T11:28:50.151Z,94809.14
2017-11-28T11:33:54.395Z,94810.77
2017-11-28T11:38:59.548Z,94802.74
2017-11-28T11:41:33.326Z,94803.95
2017-11-28T11:44:03.303Z,94797.30
2017-11-28T11:46:33.360Z,94799.12
2017-11-28T11:49:03.333Z,94789.77
2017-11-28T11:51:32.576Z,94794.48
2017-11-28T11:54:02.841Z,94798.75
2017-11-28T11:56:35.503Z,94798.26
2017-11-28T11:59:04.623Z,94792.77
2017-11-28T12:01:34.770Z,94791.48
2017-11-28T12:04:04.021Z,94788.28
2017-11-28T12:06:35.034Z,94774.56
2017-11-28T12:09:04.090Z,94774.03
2017-11-28T12:11:38.692Z,94777.66
2017-11-28T12:14:07.802Z,94779.63
2017-11-28T12:16:37.824Z,94785.56
2017-11-28T12:19:06.850Z,94765.98
2017-11-28T12:24:11.281Z,94768.68
2017-11-28T12:26:46.315Z,94764.22
2017-11-28T12:29:15.364Z,94760.27
2017-11-28T12:31:47.623Z,94757.10
2017-11-28T12:34:16.707Z,94757.08
2017-11-28T12:39:25.012Z,94772.56
2017-11-28T12:41:56.034Z,94758.58
2017-11-28T12:44:25.138Z,94760.62
2017-11-28T12:46:55.151Z,94754.64
2017-11-28T12:49:24.199Z,94749.61
2017-11-28T12:52:00.610Z,94755.36
2017-11-28T12:54:30.503Z,94750.07
2017-11-28T12:59:34.726Z,94741.77
2017-11-28T13:02:08.568Z,94741.25
2017-11-28T13:04:38.611Z,94735.82
2017-11-28T13:07:09.636Z,94736.36
2017-11-28T13:09:39.730Z,94729.28
2017-11-28T13:12:15.772Z,94728.17
2017-11-28T13:14:46.499Z,94726.22
2017-11-28T13:17:15.539Z,94723.55
2017-11-28T13:19:46.207Z,94723.50
2017-11-28T13:22:15.247Z,94717.55
2017-11-28T13:24:45.218Z,94724.91
2017-11-28T13:27:14.274Z,94715.61
2017-11-28T13:29:43.680Z,94716.02
2017-11-28T13:32:14.688Z,94713.21
2017-11-28T13:34:46.612Z,94712.71
2017-11-28T13:37:15.778Z,94712.65
2017-11-28T13:39:52.519Z,94708.12
2017-11-28T13:42:21.780Z,94715.02
2017-11-28T13:44:50.818Z,94707.92
2017-11-28T13:47:19.866Z,94703.96
2017-11-28T13:49:49.929Z,94705.69
2017-11-28T13:52:19.865Z,94701.48
2017-11-28T13:54:49.473Z,94704.00
2017-11-28T13:57:19.015Z,94697.23
2017-11-28T13:59:49.452Z,94695.58
2017-11-28T14:02:18.463Z,94699.86
2017-11-28T14:04:47.532Z,94701.94
2017-11-28T14:07:16.563Z,94706.91
2017-11-28T14:09:46.609Z,94702.38
2017-11-28T14:12:15.668Z,94696.67
2017-11-28T14:14:45.953Z,94698.80
2017-11-28T14:17:14.974Z,94699.48
2017-11-28T14:22:47.533Z,94700.45
2017-11-28T14:28:18.907Z,94706.95
2017-11-28T14:30:50.240Z,94698.91
2017-11-28T14:33:19.261Z,94702.83
2017-11-28T14:38:23.479Z,94696.30
2017-11-28T14:40:55.427Z,94698.85
2017-11-28T14:43:27.801Z,94696.77
2017-11-28T14:45:58.768Z,94691.72
2017-11-28T14:48:27.814Z,94693.77
2017-11-28T14:53:44.223Z,94692.39
2017-11-28T14:56:16.736Z,94694.13
2017-11-28T14:58:53.471Z,94691.20
2017-11-28T15:07:16.159Z,94688.39
2017-11-28T15:09:50.846Z,94688.59
2017-11-28T15:12:25.315Z,94687.53
2017-11-28T15:14:59.899Z,94686.66
2017-11-28T15:17:36.565Z,94688.16
2017-11-28T15:20:20.074Z,94697.05
2017-11-28T15:23:03.344Z,94698.16
2017-11-28T15:25:49.151Z,94688.56
2017-11-28T15:28:19.129Z,94673.57
2017-11-28T15:30:49.076Z,94687.91
2017-11-28T15:33:18.117Z,94676.05
2017-11-28T15:35:48.085Z,94682.16
2017-11-28T15:38:17.123Z,94682.13
2017-11-28T15:40:46.195Z,94685.92
2017-11-28T15:43:15.342Z,94688.89
2017-11-28T15:48:19.452Z,94685.33
2017-11-28T15:50:53.455Z,94680.88
2017-11-28T15:53:23.428Z,94680.39
2017-11-28T15:58:28.808Z,94678.56
2017-11-28T16:00:57.842Z,94678.00
2017-11-28T16:03:27.695Z,94670.72
2017-11-28T16:06:03.707Z,94662.35
2017-11-28T16:08:33.900Z,94656.10
2017-11-28T16:13:44.620Z,94660.22
2017-11-28T16:16:13.721Z,94665.22
2017-11-28T16:18:43.566Z,94670.41
2017-11-28T16:21:12.994Z,94669.45
2017-11-28T16:23:43.452Z,94662.43
2017-11-28T16:26:12.491Z,94665.26
2017-11-28T16:28:43.989Z,94659.18
2017-11-28T16:31:13.053Z,94649.44
2017-11-28T16:33:44.043Z,94645.72
2017-11-28T16:36:13.170Z,94635.20
2017-11-28T16:38:43.957Z,94640.52
2017-11-28T16:41:13.005Z,94639.53
2017-11-28T16:43:42.041Z,94635.81
2017-11-28T16:51:22.315Z,94625.72
2017-11-28T16:53:54.973Z,94629.48
2017-11-28T16:56:24.034Z,94627.43
2017-11-28T16:58:53.092Z,94622.36
2017-11-28T17:01:22.133Z,94624.82
2017-11-28T17:03:51.158Z,94624.66
2017-11-28T17:06:20.486Z,94614.74
2017-11-28T17:08:50.740Z,94616.77
2017-11-28T17:11:19.908Z,94613.55
2017-11-28T17:13:50.943Z,94617.28
2017-11-28T17:16:19.982Z,94610.64
2017-11-28T17:18:50.524Z,94612.02
2017-11-28T17:21:19.544Z,94612.86
2017-11-28T17:23:49.603Z,94609.98
2017-11-28T17:26:18.665Z,94605.51
2017-11-28T17:29:01.147Z,94604.05
2017-11-28T17:31:30.993Z,94611.34
2017-11-28T17:34:09.263Z,94605.69
2017-11-28T17:36:38.958Z,94606.25
2017-11-28T17:39:09.971Z,94601.06
2017-11-28T17:44:16.288Z,94600.84
2017-11-28T17:46:45.322Z,94595.33
2017-11-28T17:51:49.548Z,94588.59
2017-11-28T17:54:18.584Z,94584.09
2017-11-28T17:59:22.861Z,94579.09
2017-11-28T18:01:51.927Z,94579.13
2017-11-28T18:04:21.936Z,94576.66
2017-11-28T18:06:51.008Z,94573.30
2017-11-28T18:09:20.045Z,94566.87
2017-11-28T18:11:49.076Z,94565.02
2017-11-28T18:14:18.126Z,94560.28
2017-11-28T18:16:48.043Z,94560.41
2017-11-28T18:19:17.084Z,94552.54
2017-11-28T18:21:46.117Z,94557.44
2017-11-28T18:24:15.195Z,94555.61
2017-11-28T18:26:44.233Z,94561.63
2017-11-28T18:31:48.610Z,94559.36
2017-11-28T18:34:18.628Z,94549.88
2017-11-28T18:36:47.662Z,94555.62
2017-11-28T18:39:17.678Z,94552.42
2017-11-28T18:41:46.720Z,94545.01
2017-11-28T18:44:15.763Z,94538.36
2017-11-28T18:46:44.831Z,94539.16
2017-11-28T18:49:13.879Z,94536.56
2017-11-28T18:51:42.932Z,94541.58
2017-11-28T18:54:11.975Z,94537.70
2017-11-28T18:56:41.016Z,94531.55
2017-11-28T18:59:10.043Z,94535.48
2017-11-28T19:01:39.149Z,94531.93
2017-11-28T19:04:09.130Z,94532.18
2017-11-28T19:06:38.183Z,94530.42
2017-11-28T19:09:07.243Z,94523.53
2017-11-28T19:11:37.252Z,94523.30
2017-11-28T19:14:06.311Z,94519.45
2017-11-28T19:16:35.352Z,94525.75
2017-11-28T19:21:41.808Z,94531.31
2017-11-28T19:24:11.106Z,94521.31
2017-11-28T19:26:40.156Z,94522.80
2017-11-28T19:29:09.185Z,94522.11
2017-11-28T19:31:38.242Z,94524.81
2017-11-28T19:34:10.928Z,94524.34
2017-11-28T19:36:39.944Z,94523.83
2017-11-28T19:39:09.026Z,94527.77
2017-11-28T19:41:38.124Z,94527.53
2017-11-28T19:46:42.966Z,94535.62
2017-11-28T19:51:53.179Z,94535.67
2017-11-28T19:54:26.775Z,94537.58
2017-11-28T19:57:02.477Z,94538.86
2017-11-28T19:59:36.519Z,94536.20
2017-11-28T20:02:08.356Z,94538.84
2017-11-28T20:04:37.492Z,94538.01
2017-11-28T20:07:07.535Z,94532.92
2017-11-28T20:09:36.614Z,94526.91
2017-11-28T20:12:10.352Z,94527.52
2017-11-28T20:14:40.079Z,94533.49
2017-11-28T20:17:13.005Z,94527.55
2017-11-28T20:19:42.068Z,94535.89
2017-11-28T20:22:13.075Z,94529.41
2017-11-28T20:24:42.135Z,94539.09
2017-11-28T20:27:11.269Z,94534.71
2017-11-28T20:29:40.364Z,94535.98
2017-11-28T20:32:09.483Z,94531.55
2017-11-28T20:34:38.531Z,94531.63
2017-11-28T20:37:07.584Z,94529.01
2017-11-28T20:39:36.668Z,94525.50
2017-11-28T20:42:06.669Z,94523.03
2017-11-28T20:44:37.609Z,94523.26
2017-11-28T20:49:41.897Z,94521.66
2017-11-28T20:52:10.948Z,94522.75
2017-11-28T20:54:39.965Z,94517.96
2017-11-28T20:57:09.012Z,94521.34
2017-11-28T20:59:45.367Z,94529.06
2017-11-28T21:02:14.404Z,94525.30
2017-11-28T21:04:43.435Z,94525.48
2017-11-28T21:07:13.421Z,94523.27
2017-11-28T21:09:42.458Z,94528.01
2017-11-28T21:12:11.561Z,94526.36
2017-11-28T21:14:40.578Z,94526.72
2017-11-28T21:17:09.619Z,94520.52
2017-11-28T21:19:38.662Z,94521.19
2017-11-28T21:22:07.719Z,94528.69
2017-11-28T21:24:37.655Z,94524.14
2017-11-28T21:27:07.608Z,94521.93
2017-11-28T21:29:36.678Z,94529.49
2017-11-28T21:32:05.702Z,94521.04
2017-11-28T21:34:38.096Z,94519.28
2017-11-28T21:37:07.175Z,94521.92
2017-11-28T21:39:36.282Z,94525.08
2017-11-28T21:42:06.351Z,94520.69
2017-11-28T21:44:36.379Z,94520.03
2017-11-28T21:47:05.400Z,94518.64
2017-11-28T21:49:34.438Z,94522.40
2017-11-28T21:52:03.479Z,94529.88
2017-11-28T21:54:32.522Z,94525.80
2017-11-28T21:57:01.588Z,94528.36
2017-11-28T21:59:30.635Z,94521.89
2017-11-28T22:01:59.661Z,94527.17
2017-11-28T22:04:32.948Z,94529.93
2017-11-28T22:09:37.216Z,94527.80
2017-11-28T22:12:06.285Z,94520.70
2017-11-28T22:17:15.735Z,94521.47
2017-11-28T22:22:20.051Z,94513.67
2017-11-28T22:24:52.970Z,94514.33
2017-11-28T22:27:22.008Z,94516.80
2017-11-28T22:29:53.002Z,94511.63
2017-11-28T22:32:22.075Z,94512.52
2017-11-28T22:34:51.116Z,94509.17
2017-11-28T22:37:20.153Z,94508.67
2017-11-28T22:39:51.146Z,94509.09
2017-11-28T22:42:20.178Z,94512.67
2017-11-28T22:44:49.232Z,94515.22
2017-11-28T22:47:19.164Z,94504.16
2017-11-28T22:49:48.272Z,94505.64
2017-11-28T22:52:17.311Z,94505.11
2017-11-28T22:54:46.355Z,94498.42
2017-11-28T22:57:16.338Z,94491.75
2017-11-28T22:59:46.472Z,94496.62
2017-11-28T23:02:16.507Z,94495.36
2017-11-28T23:04:45.529Z,94495.63
2017-11-28T23:07:14.568Z,94493.56
2017-11-28T23:09:46.689Z,94494.20
2017-11-28T23:12:15.723Z,94499.13
2017-11-28T23:14:48.471Z,94496.56
2017-11-28T23:17:17.926Z,94493.95
2017-11-28T23:19:47.257Z,94496.34
2017-11-28T23:22:16.301Z,94493.34
2017-11-28T23:24:45.671Z,94498.39
2017-11-28T23:27:14.735Z,94499.31
2017-11-28T23:29:43.764Z,94497.20
2017-11-28T23:32:12.800Z,94491.92
2017-11-28T23:34:41.850Z,94492.70
2017-11-28T23:37:10.882Z,94493.92
2017-11-28T23:42:15.142Z,94500.37
2017-11-28T23:44:45.124Z,94495.45
2017-11-28T23:47:14.155Z,94496.89
2017-11-28T23:49:43.202Z,94489.77
2017-11-28T23:52:12.283Z,94493.95
2017-11-28T23:54:41.311Z,94485.32
2017-11-28T23:57:11.245Z,94485.80
